Time;durP1;ratioP1;P1;durP2;ratioP2;P2;SDS_P1;SDS_P2;PMS_P1;PMS_P2;Temp;Humidity;BMP_temperature;BMP_pressure;BME280_temperature;BME280_humidity;BME280_pressure;Samples;Min_cycle;Max_cycle;Signal;HPM_P1;HPM_P2
2021/01/02 00:00:11;;;;;;;37.73;24.70;;;;;;;-1.43;89.16;99120.78;1795256;79;21135;-65
2021/01/02 00:02:56;;;;;;;42.55;24.70;;;;;;;-1.41;89.31;99114.34;1794965;78;21123;-64
2021/01/02 00:05:41;;;;;;;42.62;25.23;;;;;;;-1.34;89.27;99118.57;1849383;76;23231;-63
2021/01/02 00:08:18;;;;;;;36.00;23.05;;;;;;;-1.38;89.26;99123.28;1807751;79;21041;-64
2021/01/02 00:11:11;;;;;;;40.15;25.32;;;;;;;-1.37;89.25;99116.04;1807376;77;22137;-64
2021/01/02 00:14:04;;;;;;;37.65;24.23;;;;;;;-1.40;89.13;99117.31;1809377;79;21096;-64
2021/01/02 00:16:46;;;;;;;37.67;24.18;;;;;;;-1.39;89.30;99116.47;1822532;77;20986;-64
2021/01/02 00:19:24;;;;;;;42.50;25.43;;;;;;;-1.38;89.22;99120.72;1804989;77;21037;-64
2021/01/02 00:22:11;;;;;;;44.53;26.80;;;;;;;-1.38;89.23;99120.72;1829561;77;21013;-64
2021/01/02 00:24:57;;;;;;;;;;;;;;;-1.40;89.19;99124.59;1820404;77;21196;-65
2021/01/02 00:27:40;;;;;;;34.92;23.32;;;;;;;-1.36;89.24;99131.81;1819477;77;20170;-65
2021/01/02 00:30:11;;;;;;;46.05;27.07;;;;;;;-1.37;89.26;99122.44;1810372;77;20996;-65
2021/01/02 00:32:50;;;;;;;41.00;26.45;;;;;;;-1.37;89.22;99130.13;1798458;77;21143;-65
2021/01/02 00:35:20;;;;;;;42.70;25.32;;;;;;;-1.37;89.27;99123.28;1808428;77;21147;-65
2021/01/02 00:38:06;;;;;;;39.42;25.40;;;;;;;-1.34;89.31;99128.81;1805933;77;21166;-66
2021/01/02 00:40:37;;;;;;;40.05;26.42;;;;;;;-1.35;89.23;99130.94;1820187;77;21578;-65
2021/01/02 00:43:05;;;;;;;40.67;24.80;;;;;;;-1.33;89.26;99133.06;1812141;77;21217;-65
2021/01/02 00:45:33;;;;;;;45.30;28.05;;;;;;;-1.36;89.18;99137.78;1827656;77;21127;-64
2021/01/02 00:48:07;;;;;;;40.10;26.52;;;;;;;-1.38;89.15;99138.65;1818253;77;21645;-65
2021/01/02 00:50:34;;;;;;;40.85;26.02;;;;;;;-1.36;89.26;99140.78;1802594;77;22647;-65
2021/01/02 00:53:21;;;;;;;43.85;27.48;;;;;;;-1.34;89.30;99142.90;1758936;79;21170;-65
2021/01/02 00:56:08;;;;;;;44.60;26.52;;;;;;;-1.34;89.22;99146.74;1760903;79;21001;-65
2021/01/02 00:59:10;;;;;;;43.65;25.10;;;;;;;-1.35;89.18;99142.46;1746884;80;28742;-65
2021/01/02 01:02:00;;;;;;;42.90;26.57;;;;;;;-1.36;89.22;99149.73;1745676;80;21184;-65
2021/01/02 01:04:53;;;;;;;44.58;28.17;;;;;;;-1.39;89.14;99152.33;1746616;80;22573;-65
2021/01/02 01:07:25;;;;;;;46.33;27.10;;;;;;;-1.42;89.23;99149.36;1743599;80;21574;-65
2021/01/02 01:09:55;;;;;;;46.53;27.80;;;;;;;-1.39;89.38;99149.77;1744768;80;21088;-65
2021/01/02 01:12:26;;;;;;;48.95;28.42;;;;;;;-1.41;89.30;99154.05;1743653;80;21183;-67
2021/01/02 01:14:55;;;;;;;44.18;28.67;;;;;;;-1.41;89.26;99159.16;1743830;80;21206;-65
2021/01/02 01:17:24;;;;;;;44.83;27.67;;;;;;;-1.39;89.33;99165.13;1733117;80;21250;-65
2021/01/02 01:19:54;;;;;;;46.65;27.10;;;;;;;-1.41;89.27;99159.16;1738085;82;21570;-66
2021/01/02 01:22:26;;;;;;;47.25;28.98;;;;;;;-1.40;89.32;99165.97;1732896;80;21582;-65
2021/01/02 01:25:07;;;;;;;45.55;25.82;;;;;;;-1.40;89.29;99160.85;1722334;80;21103;-65
2021/01/02 01:27:55;;;;;;;46.25;28.23;;;;;;;-1.39;89.31;99167.69;1764805;80;21567;-65
2021/01/02 01:30:24;;;;;;;48.05;28.25;;;;;;;-1.39;89.31;99170.25;1747194;80;21832;-66
2021/01/02 01:33:02;;;;;;;51.23;28.60;;;;;;;-1.39;89.27;99175.38;1754210;80;21555;-64
2021/01/02 01:35:31;;;;;;;46.70;27.75;;;;;;;-1.36;89.29;99172.78;1732562;80;21108;-66
2021/01/02 01:40:44;;;;;;;49.80;30.23;;;;;;;-1.28;89.33;99176.14;1876617;76;22401;-64
2021/01/02 01:43:28;;;;;;;51.55;29.20;;;;;;;-1.29;89.36;99176.14;1841758;77;21079;-64
2021/01/02 01:46:14;;;;;;;50.95;29.42;;;;;;;-1.28;89.27;99179.98;1851726;77;21833;-63
2021/01/02 01:49:09;;;;;;;46.48;26.33;;;;;;;-1.23;89.38;99176.95;1837855;77;21474;-64
2021/01/02 01:51:58;;;;;;;47.00;28.95;;;;;;;-1.22;89.22;99186.33;1841679;77;20976;-64
2021/01/02 01:54:51;;;;;;;50.40;30.05;;;;;;;-1.22;89.29;99178.64;1851386;77;21075;-64
2021/01/02 01:57:25;;;;;;;48.45;28.75;;;;;;;-1.21;89.24;99178.20;1857348;77;21005;-65
2021/01/02 02:00:06;;;;;;;52.85;31.17;;;;;;;-1.19;89.30;99176.49;1859596;77;21177;-65
2021/01/02 02:02:53;;;;;;;58.23;28.92;;;;;;;-1.18;89.30;99179.45;1845814;77;21064;-65
2021/01/02 02:05:24;;;;;;;52.55;30.23;;;;;;;-1.19;89.18;99181.17;1805287;78;21008;-65
2021/01/02 02:08:03;;;;;;;51.68;30.48;;;;;;;-1.16;89.29;99181.15;1815386;78;20992;-63
2021/01/02 02:10:47;;;;;;;51.28;30.25;;;;;;;-1.17;89.28;99182.02;1780145;80;21044;-62
2021/01/02 02:13:21;;;;;;;48.33;29.70;;;;;;;-1.17;89.24;99182.02;1752102;80;21278;-63
2021/01/02 02:15:55;;;;;;;50.48;28.80;;;;;;;-1.19;89.20;99178.62;1763821;80;21140;-62
2021/01/02 02:18:27;;;;;;;52.60;30.90;;;;;;;-1.18;89.18;99187.98;1777172;80;21030;-63
2021/01/02 02:20:58;;;;;;;53.90;30.15;;;;;;;-1.19;89.27;99185.45;1793221;78;21161;-63
2021/01/02 02:26:36;;;;;;;54.55;30.02;;;;;;;-1.15;89.24;99184.15;1696758;83;22177;-64
2021/01/02 02:29:22;;;;;;;50.17;28.47;;;;;;;-1.17;89.16;99188.42;1699713;83;21603;-64
2021/01/02 02:31:47;;;;;;;54.80;30.57;;;;;;;-1.22;89.12;99191.45;1685953;84;21130;-64
2021/01/02 02:34:16;;;;;;;50.85;29.92;;;;;;;-1.23;89.15;99187.20;1687406;84;21149;-64
2021/01/02 02:36:44;;;;;;;51.58;30.15;;;;;;;-1.19;89.34;99185.02;1663283;84;21147;-64
2021/01/02 02:39:15;;;;;;;60.65;32.05;;;;;;;-1.20;89.21;99189.73;1693152;82;21884;-64
2021/01/02 02:41:50;;;;;;;48.90;28.07;;;;;;;-1.22;89.21;99194.02;1673022;84;21024;-65
2021/01/02 02:48:20;;;;;;;56.30;30.50;;;;;;;-1.32;89.03;99183.41;1680390;82;21288;-65
2021/01/02 02:50:52;;;;;;;53.80;29.48;;;;;;;-1.42;89.10;99180.52;1673562;84;21625;-64
2021/01/02 02:53:18;;;;;;;51.48;29.98;;;;;;;-1.45;89.16;99185.67;1672028;84;21710;-65
2021/01/02 02:55:46;;;;;;;49.35;30.52;;;;;;;-1.47;89.20;99185.67;1673767;84;21141;-65
2021/01/02 02:58:13;;;;;;;;;;;;;;;-1.50;89.20;99186.13;1675847;84;21200;-65
2021/01/02 03:00:41;;;;;;;55.33;30.15;;;;;;;-1.51;89.24;99183.13;1673731;85;20221;-65
2021/01/02 03:03:10;;;;;;;43.10;27.42;;;;;;;-1.51;89.26;99188.25;1673285;84;21166;-66
2021/01/02 03:05:39;;;;;;;46.77;28.60;;;;;;;-1.50;89.29;99195.09;1670906;84;22466;-65
2021/01/02 03:08:07;;;;;;;53.90;30.45;;;;;;;-1.50;89.33;99192.09;1672925;84;21656;-65
2021/01/02 03:10:35;;;;;;;56.65;30.62;;;;;;;-1.48;89.37;99196.78;1678380;83;21073;-65
2021/01/02 03:13:03;;;;;;;48.63;28.77;;;;;;;-1.44;89.41;99200.16;1683265;83;21147;-65
2021/01/02 03:15:40;;;;;;;49.93;28.50;;;;;;;-1.42;89.34;99197.17;1689543;84;21581;-65
2021/01/02 03:18:12;;;;;;;49.85;28.67;;;;;;;-1.40;89.33;99199.27;1669731;84;21611;-65
2021/01/02 03:20:39;;;;;;;50.35;27.93;;;;;;;-1.37;89.32;99204.39;1670569;84;21209;-65
2021/01/02 03:23:06;;;;;;;47.73;27.82;;;;;;;-1.38;89.24;99207.80;1670214;84;21043;-64
2021/01/02 03:25:35;;;;;;;48.90;27.98;;;;;;;-1.39;89.15;99203.55;1655893;84;21545;-65
2021/01/02 03:28:03;;;;;;;47.43;28.30;;;;;;;-1.42;89.10;99199.73;1666645;85;21204;-65
2021/01/02 03:30:30;;;;;;;55.20;29.40;;;;;;;-1.45;89.04;99202.31;1637127;86;22544;-65
2021/01/02 03:32:58;;;;;;;54.50;30.40;;;;;;;-1.46;89.13;99207.00;1670269;84;21042;-65
2021/01/02 03:35:26;;;;;;;52.08;29.55;;;;;;;-1.47;89.17;99202.75;1662805;84;21078;-64
2021/01/02 03:37:53;;;;;;;55.48;29.52;;;;;;;-1.47;89.13;99207.87;1665793;84;21597;-64
2021/01/02 03:40:20;;;;;;;47.83;28.05;;;;;;;-1.52;89.13;99199.36;1641679;86;21256;-65
2021/01/02 03:42:48;;;;;;;50.70;28.55;;;;;;;-1.51;89.19;99204.89;1644869;85;21814;-65
2021/01/02 03:45:17;;;;;;;47.55;27.90;;;;;;;-1.51;89.19;99203.61;1642342;86;21034;-65
2021/01/02 03:47:47;;;;;;;52.35;28.80;;;;;;;-1.53;89.17;99206.64;1643950;85;21653;-65
2021/01/02 03:50:16;;;;;;;54.45;29.60;;;;;;;-1.55;89.10;99214.75;1646651;85;21610;-65
2021/01/02 03:52:44;;;;;;;48.05;27.98;;;;;;;-1.56;89.13;99211.34;1642893;85;21585;-65
2021/01/02 03:55:13;;;;;;;53.75;27.98;;;;;;;-1.59;89.06;99209.66;1648527;85;21881;-65
2021/01/02 03:57:43;;;;;;;52.90;28.27;;;;;;;-1.60;89.04;99210.52;1670506;84;21127;-65
2021/01/02 04:00:13;;;;;;;51.05;30.62;;;;;;;-1.64;89.05;99211.38;1673108;85;21064;-65
2021/01/02 04:02:40;;;;;;;54.13;29.65;;;;;;;-1.68;89.02;99214.84;1661867;85;21067;-65
2021/01/02 04:05:09;;;;;;;62.40;29.80;;;;;;;-1.71;89.06;99218.70;1674390;84;21028;-65
2021/01/02 04:07:36;;;;;;;59.33;29.72;;;;;;;-1.74;89.04;99217.41;1658274;84;21238;-64
2021/01/02 04:10:25;;;;;;;52.15;28.75;;;;;;;-1.77;89.16;99219.98;1643248;84;21226;-64
2021/01/02 04:12:52;;;;;;;49.80;28.60;;;;;;;-1.80;89.15;99213.17;1653837;85;21175;-65
2021/01/02 04:15:19;;;;;;;56.15;30.55;;;;;;;-1.87;89.00;99217.08;1638249;86;21582;-66
2021/01/02 04:17:47;;;;;;;55.80;29.25;;;;;;;-1.95;88.95;99218.38;1665190;84;21176;-65
2021/01/02 04:20:16;;;;;;;54.35;29.82;;;;;;;-2.05;88.91;99209.89;1670227;84;21671;-65
2021/01/02 04:22:44;;;;;;;58.75;31.73;;;;;;;-2.11;89.06;99215.03;1636070;85;21171;-65
2021/01/02 04:25:12;;;;;;;60.95;31.42;;;;;;;-2.10;89.27;99217.16;1639376;86;21045;-65
2021/01/02 04:27:39;;;;;;;53.00;29.40;;;;;;;-2.07;89.34;99224.41;1646401;86;21155;-65
2021/01/02 04:30:08;;;;;;;56.88;28.87;;;;;;;-2.06;89.33;99218.42;1661023;85;21644;-65
2021/01/02 04:32:35;;;;;;;53.13;28.80;;;;;;;-2.05;89.34;99221.39;1658897;84;21601;-65
2021/01/02 04:35:04;;;;;;;53.20;29.10;;;;;;;-2.00;89.40;99221.83;1654732;85;21032;-65
2021/01/02 04:37:31;;;;;;;50.10;27.52;;;;;;;-1.98;89.32;99225.23;1639738;86;22114;-64
2021/01/02 04:40:01;;;;;;;56.73;28.47;;;;;;;-1.95;89.30;99220.94;1646362;85;21175;-65
2021/01/02 04:42:29;;;;;;;55.00;27.07;;;;;;;-1.92;89.26;99224.77;1640295;86;21641;-66
2021/01/02 04:44:56;;;;;;;53.33;27.82;;;;;;;-1.89;89.25;99225.18;1635943;86;21280;-65
2021/01/02 04:47:24;;;;;;;50.73;28.10;;;;;;;-1.86;89.18;99222.60;1645717;85;21666;-65
2021/01/02 04:49:51;;;;;;;51.90;28.80;;;;;;;-1.87;89.18;99227.31;1613120;87;21166;-65
2021/01/02 04:52:19;;;;;;;;;;;;;;;-1.86;89.20;99225.16;1634991;86;21204;-64
2021/01/02 04:54:50;;;;;;;49.88;29.00;;;;;;;-1.83;89.21;99235.38;1636385;86;20588;-64
2021/01/02 04:57:18;;;;;;;46.92;25.17;;;;;;;-1.81;89.30;99225.99;1652150;84;21280;-65
2021/01/02 04:59:51;;;;;;;45.08;26.48;;;;;;;-1.79;89.19;99221.73;1638606;86;21115;-65
2021/01/02 05:02:21;;;;;;;52.65;28.35;;;;;;;-1.81;89.21;99223.44;1640239;86;21212;-65
2021/01/02 05:04:50;;;;;;;60.65;30.43;;;;;;;-1.81;89.20;99221.72;1644881;85;21715;-65
2021/01/02 05:07:29;;;;;;;48.15;28.40;;;;;;;-1.82;89.14;99229.39;1637903;86;21190;-65
2021/01/02 05:09:58;;;;;;;56.15;28.65;;;;;;;-1.81;89.20;99228.55;1655845;85;21278;-64
2021/01/02 05:12:33;;;;;;;54.60;29.10;;;;;;;-1.80;89.20;99222.56;1671817;84;21051;-65
2021/01/02 05:15:13;;;;;;;55.70;29.60;;;;;;;-1.78;89.18;99224.69;1665094;84;21233;-65
2021/01/02 05:17:43;;;;;;;49.18;27.48;;;;;;;-1.75;89.19;99231.08;1680669;84;21089;-66
2021/01/02 05:20:15;;;;;;;51.20;27.22;;;;;;;-1.73;89.21;99234.48;1664440;84;21176;-65
2021/01/02 05:22:43;;;;;;;54.40;27.37;;;;;;;-1.71;89.21;99237.89;1678451;84;21209;-64
2021/01/02 05:25:21;;;;;;;53.98;27.67;;;;;;;-1.68;89.27;99242.99;1678880;84;21201;-65
2021/01/02 05:27:52;;;;;;;47.83;26.87;;;;;;;-1.66;89.20;99242.53;1681354;83;21048;-65
2021/01/02 05:30:33;;;;;;;54.13;28.17;;;;;;;-1.63;89.23;99253.19;1666372;84;21180;-66
2021/01/02 05:33:10;;;;;;;52.43;27.05;;;;;;;-1.60;89.30;99246.36;1681950;84;21163;-65
2021/01/02 05:35:44;;;;;;;52.23;28.02;;;;;;;-1.54;89.26;99254.84;1685152;84;21417;-65
2021/01/02 05:38:24;;;;;;;46.28;26.15;;;;;;;-1.52;89.21;99253.13;1667651;84;21620;-65
2021/01/02 05:40:58;;;;;;;51.25;27.82;;;;;;;-1.53;89.15;99254.00;1658661;84;21040;-64
2021/01/02 05:43:28;;;;;;;49.15;26.95;;;;;;;-1.54;89.09;99258.69;1703299;83;22021;-65
2021/01/02 05:45:56;;;;;;;45.30;26.25;;;;;;;-1.54;89.13;99257.41;1679036;84;21212;-65
2021/01/02 05:48:25;;;;;;;;;;;;;;;-1.53;89.14;99261.69;1666693;84;21273;-65
2021/01/02 05:50:55;;;;;;;47.50;25.50;;;;;;;-1.55;89.11;99262.11;1661964;84;20252;-65
2021/01/02 05:53:33;;;;;;;48.02;24.43;;;;;;;-1.58;89.15;99259.98;1697384;83;21153;-65
2021/01/02 05:56:14;;;;;;;47.45;26.95;;;;;;;-1.60;89.09;99261.72;1676120;84;21198;-65
2021/01/02 05:58:46;;;;;;;46.98;26.05;;;;;;;-1.63;89.08;99266.83;1662892;84;21159;-66
2021/01/02 06:01:19;;;;;;;50.15;26.80;;;;;;;-1.66;89.08;99276.25;1675596;84;22094;-65
2021/01/02 06:03:48;;;;;;;49.63;27.62;;;;;;;-1.68;89.15;99278.83;1679066;84;21350;-64
2021/01/02 06:06:19;;;;;;;53.90;26.95;;;;;;;-1.68;89.20;99283.95;1663276;84;21019;-64
2021/01/02 06:08:50;;;;;;;58.92;29.90;;;;;;;-1.67;89.24;99285.64;1677944;83;21126;-65
2021/01/02 06:11:22;;;;;;;55.92;26.45;;;;;;;-1.65;89.29;99285.21;1678839;83;21060;-65
2021/01/02 06:13:53;;;;;;;54.38;28.55;;;;;;;-1.63;89.27;99291.15;1684837;83;22697;-65
2021/01/02 06:16:21;;;;;;;50.80;26.97;;;;;;;-1.61;89.23;99291.16;1670193;84;21040;-64
2021/01/02 06:18:49;;;;;;;52.55;27.85;;;;;;;-1.62;89.20;99286.47;1678195;84;21099;-66
2021/01/02 06:21:37;;;;;;;59.23;29.10;;;;;;;-1.62;89.20;99289.03;1671122;84;22200;-65
2021/01/02 06:24:06;;;;;;;56.08;30.10;;;;;;;-1.60;89.22;99292.45;1706623;82;21185;-65
2021/01/02 06:26:35;;;;;;;64.77;31.85;;;;;;;-1.61;89.19;99298.41;1707147;83;21425;-65
2021/01/02 06:29:02;;;;;;;60.15;31.17;;;;;;;-1.61;89.25;99300.13;1705742;81;28499;-65
2021/01/02 06:31:33;;;;;;;61.60;31.12;;;;;;;-1.62;89.29;99299.27;1720270;82;21052;-65
2021/01/02 06:34:06;;;;;;;60.52;30.32;;;;;;;-1.61;89.32;99300.96;1723058;81;20979;-65
2021/01/02 06:36:39;;;;;;;59.27;30.92;;;;;;;-1.58;89.43;99306.06;1714157;81;21192;-65
2021/01/02 06:39:27;;;;;;;59.98;28.95;;;;;;;-1.53;89.41;99306.48;1727844;81;21065;-65
2021/01/02 06:41:57;;;;;;;66.30;32.33;;;;;;;-1.51;89.37;99306.03;1721474;81;21221;-65
2021/01/02 06:44:44;;;;;;;58.30;30.17;;;;;;;-1.47;89.40;99319.25;1691350;83;21059;-65
2021/01/02 06:47:22;;;;;;;65.08;32.08;;;;;;;-1.44;89.42;99323.92;1687576;83;21166;-65
2021/01/02 06:52:36;;;;;;;58.95;30.97;;;;;;;-1.32;89.42;99314.47;1882767;75;23326;-65
2021/01/02 06:55:24;;;;;;;54.88;29.67;;;;;;;-1.33;89.40;99328.99;1852813;77;21099;-64
2021/01/02 06:58:15;;;;;;;51.05;28.57;;;;;;;-1.32;89.36;99337.09;1845787;76;21195;-65
2021/01/02 07:03:50;;;;;;;55.52;30.43;;;;;;;-1.22;89.35;99332.34;1852698;75;22782;-64
2021/01/02 07:06:24;;;;;;;55.08;28.05;;;;;;;-1.25;89.36;99340.05;1821522;76;21048;-63
2021/01/02 07:09:18;;;;;;;52.73;29.30;;;;;;;-1.23;89.41;99348.59;1811422;77;21557;-64
2021/01/02 07:11:48;;;;;;;59.08;28.75;;;;;;;-1.20;89.43;99353.69;1820224;77;21060;-65
2021/01/02 07:14:26;;;;;;;56.37;29.25;;;;;;;-1.19;89.44;99357.94;1810608;77;20996;-63
2021/01/02 07:17:05;;;;;;;54.38;29.00;;;;;;;-1.17;89.45;99349.83;1822402;77;21087;-65
2021/01/02 07:19:41;;;;;;;54.40;28.67;;;;;;;-1.15;89.50;99353.23;1829205;76;21042;-64
2021/01/02 07:22:24;;;;;;;55.60;28.87;;;;;;;-1.09;89.50;99357.48;1824859;76;22574;-66
2021/01/02 07:25:01;;;;;;;54.18;28.32;;;;;;;-1.04;89.60;99358.70;1826713;77;21104;-65
2021/01/02 07:27:36;;;;;;;55.65;28.27;;;;;;;-0.99;89.54;99362.09;1819401;77;21058;-64
2021/01/02 07:30:14;;;;;;;57.67;29.35;;;;;;;-0.96;89.50;99362.08;1832451;77;21178;-65
2021/01/02 07:32:44;;;;;;;56.85;29.12;;;;;;;-0.93;89.44;99367.18;1818450;77;21024;-65
2021/01/02 07:35:17;;;;;;;58.90;28.70;;;;;;;-0.91;89.46;99362.91;1827638;77;21182;-65
2021/01/02 07:37:46;;;;;;;51.88;27.37;;;;;;;-0.89;89.44;99366.31;1819806;76;21127;-64
2021/01/02 07:40:20;;;;;;;52.13;28.77;;;;;;;-0.86;89.43;99371.42;1821453;77;21052;-66
2021/01/02 07:42:56;;;;;;;63.80;30.00;;;;;;;-0.84;89.44;99370.98;1819274;77;21846;-66
2021/01/02 07:48:08;;;;;;;57.10;29.00;;;;;;;-0.78;89.38;99379.06;1821167;76;22712;-65
2021/01/02 07:50:34;;;;;;;60.30;28.75;;;;;;;-0.81;89.36;99379.94;1804698;78;21068;-65
2021/01/02 07:53:07;;;;;;;59.05;29.50;;;;;;;-0.80;89.42;99380.34;1804749;77;22138;-65
2021/01/02 07:55:36;;;;;;;57.78;29.37;;;;;;;-0.78;89.50;99385.03;1799223;78;21027;-65
2021/01/02 07:58:03;;;;;;;59.30;31.77;;;;;;;-0.78;89.41;99389.32;1812320;77;20941;-65
2021/01/02 08:00:31;;;;;;;62.30;30.20;;;;;;;-0.75;89.47;99396.55;1744354;80;21693;-65
2021/01/02 08:03:05;;;;;;;58.17;29.48;;;;;;;-0.75;89.39;99391.42;1744853;81;21022;-64
2021/01/02 08:05:34;;;;;;;52.75;28.42;;;;;;;-0.75;89.37;99395.27;1749462;81;21065;-64
2021/01/02 08:08:07;;;;;;;56.77;30.68;;;;;;;-0.75;89.38;99391.86;1746435;81;21566;-65
2021/01/02 08:10:36;;;;;;;64.05;30.05;;;;;;;-0.74;89.36;99396.95;1740689;80;21048;-64
2021/01/02 08:13:06;;;;;;;57.30;28.47;;;;;;;-0.73;89.34;99401.25;1750602;79;21980;-65
2021/01/02 08:15:36;;;;;;;55.63;29.30;;;;;;;-0.71;89.40;99404.63;1745433;80;21623;-65
2021/01/02 08:18:06;;;;;;;53.65;27.73;;;;;;;-0.68;89.44;99405.88;1752046;80;22256;-64
2021/01/02 08:20:34;;;;;;;59.23;28.95;;;;;;;-0.66;89.40;99403.77;1750699;79;22407;-65
2021/01/02 08:23:09;;;;;;;55.40;27.80;;;;;;;-0.63;89.38;99414.00;1745451;80;21113;-65
2021/01/02 08:25:37;;;;;;;53.68;26.90;;;;;;;-0.62;89.35;99413.97;1743573;79;21122;-66
2021/01/02 08:28:05;;;;;;;56.53;28.95;;;;;;;-0.60;89.29;99413.97;1743760;80;21155;-66
2021/01/02 08:30:39;;;;;;;53.50;29.20;;;;;;;-0.62;89.32;99418.25;1749560;80;21186;-65
2021/01/02 08:33:08;;;;;;;47.23;25.65;;;;;;;-0.59;89.38;99429.77;1745004;79;20974;-65
2021/01/02 08:35:38;;;;;;;53.85;27.70;;;;;;;-0.55;89.42;99430.19;1750470;79;21124;-65
2021/01/02 08:38:11;;;;;;;57.90;28.85;;;;;;;-0.54;89.30;99428.02;1752318;81;21547;-65
2021/01/02 08:40:47;;;;;;;53.30;26.25;;;;;;;-0.53;89.29;99431.88;1752162;81;21181;-65
2021/01/02 08:43:26;;;;;;;49.33;25.43;;;;;;;-0.50;89.30;99432.29;1752332;79;21199;-65
2021/01/02 08:46:09;;;;;;;57.10;28.32;;;;;;;-0.46;89.36;99430.11;1745049;81;21359;-65
2021/01/02 08:48:48;;;;;;;52.17;26.65;;;;;;;-0.43;89.40;99432.64;1749511;81;21060;-65
2021/01/02 08:51:23;;;;;;;53.25;27.50;;;;;;;-0.37;89.35;99435.16;1748012;79;21222;-66
2021/01/02 08:53:54;;;;;;;54.05;27.35;;;;;;;-0.35;89.26;99436.01;1741219;81;21165;-65
2021/01/02 08:56:28;;;;;;;55.52;27.55;;;;;;;-0.33;89.24;99435.58;1742876;79;21200;-65
2021/01/02 08:59:03;;;;;;;52.25;27.60;;;;;;;-0.30;89.29;99439.39;1743534;81;21227;-66
2021/01/02 09:01:34;;;;;;;48.15;25.23;;;;;;;-0.28;89.21;99440.24;1726184;81;21246;-65
2021/01/02 09:04:12;;;;;;;54.73;28.35;;;;;;;-0.26;89.21;99448.75;1750751;80;21183;-65
2021/01/02 09:06:39;;;;;;;49.08;24.55;;;;;;;-0.25;89.22;99445.34;1742886;79;22162;-64
2021/01/02 09:09:10;;;;;;;54.38;27.02;;;;;;;-0.14;89.37;99453.38;1745793;79;21215;-64
2021/01/02 09:11:49;;;;;;;52.10;28.40;;;;;;;-0.09;89.21;99456.75;1742744;81;21220;-64
2021/01/02 09:14:18;;;;;;;52.67;25.82;;;;;;;-0.08;89.23;99460.61;1743362;80;21009;-65
2021/01/02 09:17:07;;;;;;;48.30;25.40;;;;;;;-0.01;89.18;99461.39;1740744;81;21112;-64
2021/01/02 09:19:33;;;;;;;50.50;24.25;;;;;;;0.02;89.22;99465.22;1746723;81;21550;-65
2021/01/02 09:22:01;;;;;;;44.88;23.73;;;;;;;0.06;89.09;99473.33;1738499;81;21651;-65
2021/01/02 09:24:28;;;;;;;50.23;27.42;;;;;;;0.06;89.03;99474.61;1744783;81;21250;-64
2021/01/02 09:26:57;;;;;;;42.95;23.62;;;;;;;0.07;89.09;99471.17;1749580;81;21005;-65
2021/01/02 09:29:25;;;;;;;41.23;21.80;;;;;;;0.11;89.10;99470.30;1742457;81;21085;-66
2021/01/02 09:31:52;;;;;;;42.67;22.75;;;;;;;0.13;89.01;99473.67;1749299;79;21163;-65
2021/01/02 09:34:20;;;;;;;43.45;21.95;;;;;;;0.14;89.03;99480.53;1752003;80;21212;-65
2021/01/02 09:36:52;;;;;;;42.20;22.90;;;;;;;0.16;89.02;99474.08;1749660;79;21247;-65
2021/01/02 09:39:23;;;;;;;51.48;23.57;;;;;;;0.17;89.00;99481.78;1756299;80;21545;-63
2021/01/02 09:41:56;;;;;;;44.65;23.07;;;;;;;0.21;88.97;99469.77;1765785;80;21124;-65
2021/01/02 09:44:25;;;;;;;48.40;25.05;;;;;;;0.23;89.04;99476.18;1751376;80;21602;-65
2021/01/02 09:46:53;;;;;;;49.15;25.10;;;;;;;0.23;88.94;99474.89;1765675;79;21200;-64
2021/01/02 09:49:22;;;;;;;46.00;24.63;;;;;;;0.26;89.00;99481.28;1768833;79;20993;-65
2021/01/02 09:51:50;;;;;;;45.45;24.10;;;;;;;0.28;89.02;99483.38;1735002;81;21204;-64
2021/01/02 09:54:23;;;;;;;51.75;26.37;;;;;;;0.33;89.00;99485.48;1736748;80;21045;-65
2021/01/02 09:56:50;;;;;;;47.17;24.55;;;;;;;0.37;89.10;99486.73;1741464;81;21113;-64
2021/01/02 09:59:17;;;;;;;46.55;23.80;;;;;;;0.46;89.05;99496.06;1737063;81;22186;-63
2021/01/02 10:01:53;;;;;;;47.70;24.65;;;;;;;0.54;89.09;99494.27;1734722;81;28340;-65
2021/01/02 10:04:20;;;;;;;45.03;25.00;;;;;;;0.57;88.93;99498.09;1739111;81;21199;-64
2021/01/02 10:06:55;;;;;;;40.75;23.42;;;;;;;0.61;88.84;99498.45;1736817;81;21164;-65
2021/01/02 10:09:23;;;;;;;49.27;25.92;;;;;;;0.64;88.79;99498.45;1737953;80;21705;-64
2021/01/02 10:11:51;;;;;;;46.40;25.32;;;;;;;0.65;88.83;99497.58;1740420;81;21232;-65
2021/01/02 10:14:18;;;;;;;44.55;23.50;;;;;;;0.75;89.04;99488.47;1743447;81;21109;-65
2021/01/02 10:16:45;;;;;;;39.92;22.27;;;;;;;0.83;88.83;99493.09;1737339;81;21073;-64
2021/01/02 10:19:12;;;;;;;48.80;25.35;;;;;;;0.84;88.68;99487.95;1740229;80;21227;-66
2021/01/02 10:21:43;;;;;;;48.78;24.02;;;;;;;0.87;88.66;99488.36;1744360;80;21682;-65
2021/01/02 10:24:22;;;;;;;49.25;23.85;;;;;;;0.86;88.64;99493.05;1729838;81;21685;-64
2021/01/02 10:26:53;;;;;;;43.98;22.10;;;;;;;0.86;88.57;99495.63;1737219;81;21038;-64
2021/01/02 10:29:20;;;;;;;47.60;23.90;;;;;;;0.84;88.60;99492.22;1737543;80;21144;-64
2021/01/02 10:31:49;;;;;;;45.60;23.95;;;;;;;0.78;88.54;99494.86;1736061;81;21030;-65
2021/01/02 10:34:18;;;;;;;45.05;23.18;;;;;;;0.74;88.57;99497.06;1736682;81;21010;-65
2021/01/02 10:36:45;;;;;;;44.35;24.23;;;;;;;0.74;88.67;99497.91;1739012;80;21837;-64
2021/01/02 10:39:12;;;;;;;;;;;;;;;0.71;88.59;99498.38;1732807;81;21003;-65
2021/01/02 10:41:43;;;;;;;46.58;23.55;;;;;;;0.76;88.84;99489.75;1745290;81;20130;-64
2021/01/02 10:44:10;;;;;;;47.88;23.32;;;;;;;0.74;88.72;99498.34;1734313;80;21096;-65
2021/01/02 10:46:40;;;;;;;42.95;23.65;;;;;;;0.76;88.76;99496.62;1736014;80;21628;-65
2021/01/02 10:49:10;;;;;;;45.55;23.57;;;;;;;0.81;88.69;99494.82;1735528;81;21013;-65
2021/01/02 10:51:39;;;;;;;51.70;24.10;;;;;;;0.80;88.55;99498.27;1742194;80;21084;-66
2021/01/02 10:54:13;;;;;;;48.55;24.57;;;;;;;0.81;88.65;99497.39;1733149;81;21156;-66
2021/01/02 10:56:54;;;;;;;49.98;24.30;;;;;;;0.80;88.64;99496.98;1734550;80;21033;-64
2021/01/02 10:59:24;;;;;;;50.88;25.55;;;;;;;0.81;88.58;99497.39;1730428;81;20977;-65
2021/01/02 11:01:56;;;;;;;46.77;24.23;;;;;;;0.85;88.61;99493.94;1724321;81;22087;-64
2021/01/02 11:04:27;;;;;;;51.63;25.02;;;;;;;0.85;88.59;99491.37;1732666;81;21258;-64
2021/01/02 11:06:58;;;;;;;45.78;23.75;;;;;;;0.89;88.57;99490.45;1737168;81;21081;-64
2021/01/02 11:09:26;;;;;;;46.40;25.15;;;;;;;0.85;88.47;99493.94;1736817;80;21634;-65
2021/01/02 11:11:57;;;;;;;51.18;25.85;;;;;;;0.86;88.51;99489.20;1736104;81;21574;-66
2021/01/02 11:14:27;;;;;;;49.08;27.00;;;;;;;0.84;88.49;99493.09;1739100;81;21658;-64
2021/01/02 11:16:56;;;;;;;52.03;28.23;;;;;;;0.89;88.64;99495.59;1731060;80;21121;-65
2021/01/02 11:19:27;;;;;;;48.33;26.40;;;;;;;0.95;88.86;99490.37;1733535;80;21247;-65
2021/01/02 11:21:58;;;;;;;55.00;26.50;;;;;;;1.01;88.73;99492.89;1730844;81;21054;-64
2021/01/02 11:24:29;;;;;;;54.58;27.98;;;;;;;1.05;88.61;99491.13;1717500;81;21137;-65
2021/01/02 11:27:01;;;;;;;51.13;26.75;;;;;;;1.11;88.59;99497.03;1733162;81;21328;-65
2021/01/02 11:29:31;;;;;;;45.88;25.52;;;;;;;1.17;88.45;99492.69;1739261;81;21298;-64
2021/01/02 11:32:08;;;;;;;51.37;27.52;;;;;;;1.21;88.38;99491.80;1736858;81;21191;-64
2021/01/02 11:34:40;;;;;;;55.12;28.17;;;;;;;1.21;88.29;99502.08;1738742;81;22126;-64
2021/01/02 11:37:14;;;;;;;52.30;28.62;;;;;;;1.27;88.44;99494.28;1731210;81;21136;-64
2021/01/02 11:39:42;;;;;;;52.98;27.98;;;;;;;1.31;88.36;99486.48;1733357;80;21991;-64
2021/01/02 11:42:14;;;;;;;46.88;24.90;;;;;;;1.39;88.51;99496.67;1743396;81;21150;-65
2021/01/02 11:44:48;;;;;;;45.65;25.25;;;;;;;1.41;88.24;99492.37;1744899;81;20950;-64
2021/01/02 11:47:21;;;;;;;53.92;25.65;;;;;;;1.41;88.21;99486.38;1738013;81;21200;-64
2021/01/02 11:49:49;;;;;;;47.03;25.68;;;;;;;1.47;88.46;99490.99;1721489;81;21215;-65
2021/01/02 11:52:21;;;;;;;46.65;27.30;;;;;;;1.58;88.49;99491.28;1738220;81;21223;-63
2021/01/02 11:54:51;;;;;;;48.98;25.60;;;;;;;1.59;88.41;99488.67;1735797;81;21846;-64
2021/01/02 11:57:22;;;;;;;45.83;25.43;;;;;;;1.59;88.29;99490.41;1735615;80;21194;-64
2021/01/02 11:59:51;;;;;;;44.13;24.77;;;;;;;1.54;88.21;99491.33;1734874;80;21607;-64
2021/01/02 12:02:20;;;;;;;43.33;24.90;;;;;;;1.47;88.11;99484.56;1732582;80;21223;-64